sensor_id;sensor_type;location;lat;lon;timestamp;temperature;humidity
10459;DHT22;5277;48.722;8.736;2022-10-16T00:00:31;15.50;99.90
10459;DHT22;5277;48.722;8.736;2022-10-16T00:02:56;15.40;99.90
10459;DHT22;5277;48.722;8.736;2022-10-16T00:05:22;15.40;99.90
10459;DHT22;5277;48.722;8.736;2022-10-16T00:07:48;15.40;99.90
10459;DHT22;5277;48.722;8.736;2022-10-16T00:10:13;15.40;99.90
10459;DHT22;5277;48.722;8.736;2022-10-16T00:12:39;15.30;99.90
10459;DHT22;5277;48.722;8.736;2022-10-16T00:15:05;15.30;99.90
10459;DHT22;5277;48.722;8.736;2022-10-16T00:17:31;15.30;99.90
10459;DHT22;5277;48.722;8.736;2022-10-16T00:19:57;15.30;99.90
10459;DHT22;5277;48.722;8.736;2022-10-16T00:22:23;15.30;99.90
10459;DHT22;5277;48.722;8.736;2022-10-16T00:24:49;15.30;99.90
10459;DHT22;5277;48.722;8.736;2022-10-16T00:27:15;15.30;99.90
10459;DHT22;5277;48.722;8.736;2022-10-16T00:29:42;15.40;99.90
10459;DHT22;5277;48.722;8.736;2022-10-16T00:32:08;15.30;99.90
10459;DHT22;5277;48.722;8.736;2022-10-16T00:34:33;15.40;99.90
10459;DHT22;5277;48.722;8.736;2022-10-16T00:36:59;15.30;99.90
10459;DHT22;5277;48.722;8.736;2022-10-16T00:39:25;15.40;99.90
10459;DHT22;5277;48.722;8.736;2022-10-16T00:41:51;15.40;99.90
10459;DHT22;5277;48.722;8.736;2022-10-16T00:44:52;15.40;99.90
10459;DHT22;5277;48.722;8.736;2022-10-16T00:47:32;15.40;99.90
10459;DHT22;5277;48.722;8.736;2022-10-16T00:52:50;15.30;99.90
10459;DHT22;5277;48.722;8.736;2022-10-16T00:55:16;15.30;99.90
10459;DHT22;5277;48.722;8.736;2022-10-16T00:57:43;15.30;99.90
10459;DHT22;5277;48.722;8.736;2022-10-16T01:00:12;15.40;99.90
10459;DHT22;5277;48.722;8.736;2022-10-16T01:02:38;15.40;99.90
10459;DHT22;5277;48.722;8.736;2022-10-16T01:05:04;15.40;99.90
10459;DHT22;5277;48.722;8.736;2022-10-16T01:10:38;15.40;99.90
10459;DHT22;5277;48.722;8.736;2022-10-16T01:13:10;15.40;99.90
10459;DHT22;5277;48.722;8.736;2022-10-16T01:16:11;15.40;99.90
10459;DHT22;5277;48.722;8.736;2022-10-16T01:18:42;15.40;99.90
10459;DHT22;5277;48.722;8.736;2022-10-16T01:21:24;15.30;99.90
10459;DHT22;5277;48.722;8.736;2022-10-16T01:24:17;15.30;99.90
10459;DHT22;5277;48.722;8.736;2022-10-16T01:27:12;15.30;99.90
10459;DHT22;5277;48.722;8.736;2022-10-16T01:29:55;15.30;99.90
10459;DHT22;5277;48.722;8.736;2022-10-16T01:32:58;15.40;99.90
10459;DHT22;5277;48.722;8.736;2022-10-16T01:35:29;15.40;99.90
10459;DHT22;5277;48.722;8.736;2022-10-16T01:38:04;15.40;99.90
10459;DHT22;5277;48.722;8.736;2022-10-16T01:40:34;15.30;99.90
10459;DHT22;5277;48.722;8.736;2022-10-16T01:43:05;15.30;99.90
10459;DHT22;5277;48.722;8.736;2022-10-16T01:45:33;15.30;99.90
10459;DHT22;5277;48.722;8.736;2022-10-16T01:48:01;15.30;99.90
10459;DHT22;5277;48.722;8.736;2022-10-16T01:50:32;15.30;99.90
10459;DHT22;5277;48.722;8.736;2022-10-16T01:52:59;15.30;99.90
10459;DHT22;5277;48.722;8.736;2022-10-16T01:55:31;15.30;99.90
10459;DHT22;5277;48.722;8.736;2022-10-16T01:57:59;15.30;99.90
10459;DHT22;5277;48.722;8.736;2022-10-16T02:00:25;15.30;99.90
10459;DHT22;5277;48.722;8.736;2022-10-16T02:02:53;15.30;99.90
10459;DHT22;5277;48.722;8.736;2022-10-16T02:05:34;15.40;99.90
10459;DHT22;5277;48.722;8.736;2022-10-16T02:08:04;15.40;99.90
10459;DHT22;5277;48.722;8.736;2022-10-16T02:10:29;15.30;99.90
10459;DHT22;5277;48.722;8.736;2022-10-16T02:13:04;15.30;99.90
10459;DHT22;5277;48.722;8.736;2022-10-16T02:15:30;15.20;99.90
10459;DHT22;5277;48.722;8.736;2022-10-16T02:17:56;15.20;99.90
10459;DHT22;5277;48.722;8.736;2022-10-16T02:20:25;15.20;99.90
10459;DHT22;5277;48.722;8.736;2022-10-16T02:22:53;15.20;99.90
10459;DHT22;5277;48.722;8.736;2022-10-16T02:25:30;15.20;99.90
10459;DHT22;5277;48.722;8.736;2022-10-16T02:28:22;15.20;99.90
10459;DHT22;5277;48.722;8.736;2022-10-16T02:30:58;15.20;99.90
10459;DHT22;5277;48.722;8.736;2022-10-16T02:33:26;15.10;99.90
10459;DHT22;5277;48.722;8.736;2022-10-16T02:35:53;15.10;99.90
10459;DHT22;5277;48.722;8.736;2022-10-16T02:38:20;15.10;99.90
10459;DHT22;5277;48.722;8.736;2022-10-16T02:40:47;15.20;99.90
10459;DHT22;5277;48.722;8.736;2022-10-16T02:43:13;15.20;99.90
10459;DHT22;5277;48.722;8.736;2022-10-16T02:45:39;15.20;99.90
10459;DHT22;5277;48.722;8.736;2022-10-16T02:48:05;15.20;99.90
10459;DHT22;5277;48.722;8.736;2022-10-16T02:50:31;15.20;99.90
10459;DHT22;5277;48.722;8.736;2022-10-16T02:52:57;15.20;99.90
10459;DHT22;5277;48.722;8.736;2022-10-16T02:55:22;15.20;99.90
10459;DHT22;5277;48.722;8.736;2022-10-16T02:57:48;15.20;99.90
10459;DHT22;5277;48.722;8.736;2022-10-16T03:00:15;15.30;99.90
10459;DHT22;5277;48.722;8.736;2022-10-16T03:02:41;15.30;99.90
10459;DHT22;5277;48.722;8.736;2022-10-16T03:05:08;15.20;99.90
10459;DHT22;5277;48.722;8.736;2022-10-16T03:07:34;15.20;99.90
10459;DHT22;5277;48.722;8.736;2022-10-16T03:09:59;15.20;99.90
10459;DHT22;5277;48.722;8.736;2022-10-16T03:12:26;15.20;99.90
10459;DHT22;5277;48.722;8.736;2022-10-16T03:14:52;15.20;99.90
10459;DHT22;5277;48.722;8.736;2022-10-16T03:17:18;15.20;99.90
10459;DHT22;5277;48.722;8.736;2022-10-16T03:19:44;15.30;99.90
10459;DHT22;5277;48.722;8.736;2022-10-16T03:22:09;15.20;99.90
10459;DHT22;5277;48.722;8.736;2022-10-16T03:24:35;15.10;99.90
10459;DHT22;5277;48.722;8.736;2022-10-16T03:27:01;15.10;99.90
10459;DHT22;5277;48.722;8.736;2022-10-16T03:29:26;15.10;99.90
10459;DHT22;5277;48.722;8.736;2022-10-16T03:31:55;15.10;99.90
10459;DHT22;5277;48.722;8.736;2022-10-16T03:34:20;15.10;99.90
10459;DHT22;5277;48.722;8.736;2022-10-16T03:36:46;15.10;99.90
10459;DHT22;5277;48.722;8.736;2022-10-16T03:39:12;15.10;99.90
10459;DHT22;5277;48.722;8.736;2022-10-16T03:41:37;15.20;99.90
10459;DHT22;5277;48.722;8.736;2022-10-16T03:44:03;15.20;99.90
10459;DHT22;5277;48.722;8.736;2022-10-16T03:46:29;15.10;99.90
10459;DHT22;5277;48.722;8.736;2022-10-16T03:48:54;15.10;99.90
10459;DHT22;5277;48.722;8.736;2022-10-16T03:51:20;15.10;99.90
10459;DHT22;5277;48.722;8.736;2022-10-16T03:53:46;15.10;99.90
10459;DHT22;5277;48.722;8.736;2022-10-16T03:56:12;15.10;99.90
10459;DHT22;5277;48.722;8.736;2022-10-16T03:58:38;15.10;99.90
10459;DHT22;5277;48.722;8.736;2022-10-16T04:01:03;15.10;99.90
10459;DHT22;5277;48.722;8.736;2022-10-16T04:03:29;15.10;99.90
10459;DHT22;5277;48.722;8.736;2022-10-16T04:05:55;15.00;99.90
10459;DHT22;5277;48.722;8.736;2022-10-16T04:08:21;15.00;99.90
10459;DHT22;5277;48.722;8.736;2022-10-16T04:10:46;15.00;99.90
10459;DHT22;5277;48.722;8.736;2022-10-16T04:13:12;15.00;99.90
10459;DHT22;5277;48.722;8.736;2022-10-16T04:15:38;15.00;99.90
10459;DHT22;5277;48.722;8.736;2022-10-16T04:18:05;15.00;99.90
10459;DHT22;5277;48.722;8.736;2022-10-16T04:20:30;15.00;99.90
10459;DHT22;5277;48.722;8.736;2022-10-16T04:22:56;15.00;99.90
10459;DHT22;5277;48.722;8.736;2022-10-16T04:25:22;15.00;99.90
10459;DHT22;5277;48.722;8.736;2022-10-16T04:27:48;15.00;99.90
10459;DHT22;5277;48.722;8.736;2022-10-16T04:30:13;15.00;99.90
10459;DHT22;5277;48.722;8.736;2022-10-16T04:32:39;15.00;99.90
10459;DHT22;5277;48.722;8.736;2022-10-16T04:35:05;15.00;99.90
10459;DHT22;5277;48.722;8.736;2022-10-16T04:37:31;15.00;99.90
10459;DHT22;5277;48.722;8.736;2022-10-16T04:39:56;15.00;99.90
10459;DHT22;5277;48.722;8.736;2022-10-16T04:42:22;15.00;99.90
10459;DHT22;5277;48.722;8.736;2022-10-16T04:44:48;15.00;99.90
10459;DHT22;5277;48.722;8.736;2022-10-16T04:47:13;15.00;99.90
10459;DHT22;5277;48.722;8.736;2022-10-16T04:49:39;14.90;99.90
10459;DHT22;5277;48.722;8.736;2022-10-16T04:52:05;15.00;99.90
10459;DHT22;5277;48.722;8.736;2022-10-16T04:54:31;14.90;99.90
10459;DHT22;5277;48.722;8.736;2022-10-16T04:56:57;14.90;99.90
10459;DHT22;5277;48.722;8.736;2022-10-16T04:59:26;14.90;99.90
10459;DHT22;5277;48.722;8.736;2022-10-16T05:01:52;14.90;99.90
10459;DHT22;5277;48.722;8.736;2022-10-16T05:04:17;14.90;99.90
10459;DHT22;5277;48.722;8.736;2022-10-16T05:06:43;14.90;99.90
10459;DHT22;5277;48.722;8.736;2022-10-16T05:09:09;14.90;99.90
10459;DHT22;5277;48.722;8.736;2022-10-16T05:11:35;14.80;99.90
10459;DHT22;5277;48.722;8.736;2022-10-16T05:14:01;14.80;99.90
10459;DHT22;5277;48.722;8.736;2022-10-16T05:16:26;14.80;99.90
10459;DHT22;5277;48.722;8.736;2022-10-16T05:18:52;14.80;99.90
10459;DHT22;5277;48.722;8.736;2022-10-16T05:21:18;14.80;99.90
10459;DHT22;5277;48.722;8.736;2022-10-16T05:23:44;14.80;99.90
10459;DHT22;5277;48.722;8.736;2022-10-16T05:26:10;14.80;99.90
10459;DHT22;5277;48.722;8.736;2022-10-16T05:28:35;14.70;99.90
10459;DHT22;5277;48.722;8.736;2022-10-16T05:31:05;14.70;99.90
10459;DHT22;5277;48.722;8.736;2022-10-16T05:33:32;14.70;99.90
10459;DHT22;5277;48.722;8.736;2022-10-16T05:36:01;14.70;99.90
10459;DHT22;5277;48.722;8.736;2022-10-16T05:38:27;14.70;99.90
10459;DHT22;5277;48.722;8.736;2022-10-16T05:40:53;14.70;99.90
10459;DHT22;5277;48.722;8.736;2022-10-16T05:43:19;14.70;99.90
10459;DHT22;5277;48.722;8.736;2022-10-16T05:45:54;14.70;99.90
10459;DHT22;5277;48.722;8.736;2022-10-16T05:48:19;14.70;99.90
10459;DHT22;5277;48.722;8.736;2022-10-16T05:50:45;14.70;99.90
10459;DHT22;5277;48.722;8.736;2022-10-16T05:53:10;14.60;99.90
10459;DHT22;5277;48.722;8.736;2022-10-16T05:55:36;14.60;99.90
10459;DHT22;5277;48.722;8.736;2022-10-16T05:58:02;14.50;99.90
10459;DHT22;5277;48.722;8.736;2022-10-16T06:00:27;14.60;99.90
10459;DHT22;5277;48.722;8.736;2022-10-16T06:02:53;14.60;99.90
10459;DHT22;5277;48.722;8.736;2022-10-16T06:05:19;14.60;99.90
10459;DHT22;5277;48.722;8.736;2022-10-16T06:07:45;14.60;99.90
10459;DHT22;5277;48.722;8.736;2022-10-16T06:10:10;14.60;99.90
10459;DHT22;5277;48.722;8.736;2022-10-16T06:12:36;14.60;99.90
10459;DHT22;5277;48.722;8.736;2022-10-16T06:15:02;14.60;99.90
10459;DHT22;5277;48.722;8.736;2022-10-16T06:17:27;14.60;99.90
10459;DHT22;5277;48.722;8.736;2022-10-16T06:19:53;14.60;99.90
10459;DHT22;5277;48.722;8.736;2022-10-16T06:22:19;14.60;99.90
10459;DHT22;5277;48.722;8.736;2022-10-16T06:24:45;14.60;99.90
10459;DHT22;5277;48.722;8.736;2022-10-16T06:27:11;14.50;99.90
10459;DHT22;5277;48.722;8.736;2022-10-16T06:29:37;14.60;99.90
10459;DHT22;5277;48.722;8.736;2022-10-16T06:32:03;14.60;99.90
10459;DHT22;5277;48.722;8.736;2022-10-16T06:34:28;14.60;99.90
10459;DHT22;5277;48.722;8.736;2022-10-16T06:36:54;14.70;99.90
10459;DHT22;5277;48.722;8.736;2022-10-16T06:39:20;14.70;99.90
10459;DHT22;5277;48.722;8.736;2022-10-16T06:41:46;14.70;99.90
10459;DHT22;5277;48.722;8.736;2022-10-16T06:44:12;14.80;99.90
10459;DHT22;5277;48.722;8.736;2022-10-16T06:46:37;14.70;99.90
10459;DHT22;5277;48.722;8.736;2022-10-16T06:49:03;14.70;99.90
10459;DHT22;5277;48.722;8.736;2022-10-16T06:51:28;14.80;99.90
10459;DHT22;5277;48.722;8.736;2022-10-16T06:53:55;14.80;99.90
10459;DHT22;5277;48.722;8.736;2022-10-16T06:56:26;14.90;99.90
10459;DHT22;5277;48.722;8.736;2022-10-16T06:58:53;14.90;99.90
10459;DHT22;5277;48.722;8.736;2022-10-16T07:01:21;14.90;99.90
10459;DHT22;5277;48.722;8.736;2022-10-16T07:03:47;15.00;99.90
10459;DHT22;5277;48.722;8.736;2022-10-16T07:06:16;15.00;99.90
10459;DHT22;5277;48.722;8.736;2022-10-16T07:08:44;15.00;99.90
10459;DHT22;5277;48.722;8.736;2022-10-16T07:11:13;15.10;99.90
10459;DHT22;5277;48.722;8.736;2022-10-16T07:13:40;15.10;99.90
10459;DHT22;5277;48.722;8.736;2022-10-16T07:16:08;15.20;99.90
10459;DHT22;5277;48.722;8.736;2022-10-16T07:18:34;15.20;99.90
10459;DHT22;5277;48.722;8.736;2022-10-16T07:21:11;15.20;99.90
10459;DHT22;5277;48.722;8.736;2022-10-16T07:23:37;15.20;99.90
10459;DHT22;5277;48.722;8.736;2022-10-16T07:26:04;15.20;99.90
10459;DHT22;5277;48.722;8.736;2022-10-16T07:28:31;15.30;99.90
10459;DHT22;5277;48.722;8.736;2022-10-16T07:31:05;15.20;99.90
10459;DHT22;5277;48.722;8.736;2022-10-16T07:33:32;15.30;99.90
10459;DHT22;5277;48.722;8.736;2022-10-16T07:35:58;15.40;99.90
10459;DHT22;5277;48.722;8.736;2022-10-16T07:38:24;15.40;99.90
10459;DHT22;5277;48.722;8.736;2022-10-16T07:40:59;15.50;99.90
10459;DHT22;5277;48.722;8.736;2022-10-16T07:43:26;15.60;99.90
10459;DHT22;5277;48.722;8.736;2022-10-16T07:45:52;15.60;99.90
10459;DHT22;5277;48.722;8.736;2022-10-16T07:48:19;15.70;99.90
10459;DHT22;5277;48.722;8.736;2022-10-16T07:50:45;15.80;99.90
10459;DHT22;5277;48.722;8.736;2022-10-16T07:53:11;15.90;99.90
10459;DHT22;5277;48.722;8.736;2022-10-16T07:55:37;16.00;99.90
10459;DHT22;5277;48.722;8.736;2022-10-16T07:58:03;16.10;99.90
10459;DHT22;5277;48.722;8.736;2022-10-16T08:00:29;16.30;99.90
10459;DHT22;5277;48.722;8.736;2022-10-16T08:02:59;16.40;99.90
10459;DHT22;5277;48.722;8.736;2022-10-16T08:05:29;16.50;99.90
10459;DHT22;5277;48.722;8.736;2022-10-16T08:07:56;16.60;99.90
10459;DHT22;5277;48.722;8.736;2022-10-16T08:10:24;16.70;99.90
10459;DHT22;5277;48.722;8.736;2022-10-16T08:12:50;16.70;99.90
10459;DHT22;5277;48.722;8.736;2022-10-16T08:15:17;16.70;99.90
10459;DHT22;5277;48.722;8.736;2022-10-16T08:17:42;16.80;99.90
10459;DHT22;5277;48.722;8.736;2022-10-16T08:20:09;16.80;99.90
10459;DHT22;5277;48.722;8.736;2022-10-16T08:22:35;16.90;99.90
10459;DHT22;5277;48.722;8.736;2022-10-16T08:25:00;17.00;99.90
10459;DHT22;5277;48.722;8.736;2022-10-16T08:27:34;17.10;99.90
10459;DHT22;5277;48.722;8.736;2022-10-16T08:29:59;17.10;99.90
10459;DHT22;5277;48.722;8.736;2022-10-16T08:32:25;17.20;99.90
10459;DHT22;5277;48.722;8.736;2022-10-16T08:34:51;17.30;99.90
10459;DHT22;5277;48.722;8.736;2022-10-16T08:37:17;17.30;99.90
10459;DHT22;5277;48.722;8.736;2022-10-16T08:39:42;17.40;99.90
10459;DHT22;5277;48.722;8.736;2022-10-16T08:48:25;17.50;99.90
10459;DHT22;5277;48.722;8.736;2022-10-16T08:50:53;17.50;99.90
10459;DHT22;5277;48.722;8.736;2022-10-16T08:53:34;17.60;99.90
10459;DHT22;5277;48.722;8.736;2022-10-16T08:56:02;17.60;99.90
10459;DHT22;5277;48.722;8.736;2022-10-16T08:58:29;17.60;99.90
10459;DHT22;5277;48.722;8.736;2022-10-16T09:01:01;17.70;99.90
10459;DHT22;5277;48.722;8.736;2022-10-16T09:09:38;18.00;99.90
10459;DHT22;5277;48.722;8.736;2022-10-16T09:22:55;18.20;99.90
10459;DHT22;5277;48.722;8.736;2022-10-16T09:25:25;18.20;99.90
10459;DHT22;5277;48.722;8.736;2022-10-16T09:27:53;18.30;99.90
10459;DHT22;5277;48.722;8.736;2022-10-16T09:30:21;18.30;99.90
10459;DHT22;5277;48.722;8.736;2022-10-16T09:32:50;18.50;99.90
10459;DHT22;5277;48.722;8.736;2022-10-16T09:35:46;18.70;99.90
10459;DHT22;5277;48.722;8.736;2022-10-16T09:38:33;18.90;99.90
10459;DHT22;5277;48.722;8.736;2022-10-16T09:41:01;19.10;99.90
10459;DHT22;5277;48.722;8.736;2022-10-16T09:43:46;19.20;99.90
10459;DHT22;5277;48.722;8.736;2022-10-16T09:46:34;19.30;99.90
10459;DHT22;5277;48.722;8.736;2022-10-16T09:49:05;19.50;99.90
10459;DHT22;5277;48.722;8.736;2022-10-16T09:51:43;19.60;99.90
10459;DHT22;5277;48.722;8.736;2022-10-16T09:56:36;19.90;99.90
10459;DHT22;5277;48.722;8.736;2022-10-16T09:59:14;20.20;99.90
10459;DHT22;5277;48.722;8.736;2022-10-16T10:01:49;20.40;99.90
10459;DHT22;5277;48.722;8.736;2022-10-16T10:04:19;20.50;99.90
10459;DHT22;5277;48.722;8.736;2022-10-16T10:06:54;20.70;99.90
10459;DHT22;5277;48.722;8.736;2022-10-16T10:14:47;21.10;99.90
10459;DHT22;5277;48.722;8.736;2022-10-16T10:17:23;21.20;99.90
10459;DHT22;5277;48.722;8.736;2022-10-16T10:19:57;21.20;99.90
10459;DHT22;5277;48.722;8.736;2022-10-16T10:30:56;21.70;99.90
10459;DHT22;5277;48.722;8.736;2022-10-16T10:36:40;22.10;99.90
10459;DHT22;5277;48.722;8.736;2022-10-16T10:39:14;22.20;99.90
10459;DHT22;5277;48.722;8.736;2022-10-16T10:42:08;22.30;99.90
10459;DHT22;5277;48.722;8.736;2022-10-16T10:44:50;22.40;99.90
10459;DHT22;5277;48.722;8.736;2022-10-16T10:49:53;22.60;99.90
10459;DHT22;5277;48.722;8.736;2022-10-16T10:56:23;22.70;99.90
10459;DHT22;5277;48.722;8.736;2022-10-16T10:58:42;22.60;99.90
10459;DHT22;5277;48.722;8.736;2022-10-16T11:06:50;22.60;99.90
10459;DHT22;5277;48.722;8.736;2022-10-16T11:09:22;22.50;99.90
10459;DHT22;5277;48.722;8.736;2022-10-16T11:12:12;22.40;99.90
10459;DHT22;5277;48.722;8.736;2022-10-16T11:14:48;22.20;99.90
10459;DHT22;5277;48.722;8.736;2022-10-16T11:17:22;22.10;99.90
10459;DHT22;5277;48.722;8.736;2022-10-16T11:20:03;22.10;99.90
10459;DHT22;5277;48.722;8.736;2022-10-16T11:22:44;22.10;99.90
10459;DHT22;5277;48.722;8.736;2022-10-16T11:25:26;22.10;99.90
10459;DHT22;5277;48.722;8.736;2022-10-16T11:31:16;22.10;99.90
10459;DHT22;5277;48.722;8.736;2022-10-16T11:33:47;22.00;99.90
10459;DHT22;5277;48.722;8.736;2022-10-16T11:47:27;21.70;99.90
10459;DHT22;5277;48.722;8.736;2022-10-16T11:53:20;21.60;99.90
10459;DHT22;5277;48.722;8.736;2022-10-16T11:55:49;21.70;99.90
10459;DHT22;5277;48.722;8.736;2022-10-16T12:04:06;21.60;99.90
10459;DHT22;5277;48.722;8.736;2022-10-16T12:06:44;21.60;99.90
10459;DHT22;5277;48.722;8.736;2022-10-16T12:09:25;21.60;99.90
10459;DHT22;5277;48.722;8.736;2022-10-16T12:11:52;21.70;99.90
10459;DHT22;5277;48.722;8.736;2022-10-16T12:16:55;21.80;99.90
10459;DHT22;5277;48.722;8.736;2022-10-16T12:19:22;21.70;99.90
10459;DHT22;5277;48.722;8.736;2022-10-16T12:21:49;21.80;99.90
10459;DHT22;5277;48.722;8.736;2022-10-16T12:24:34;21.80;99.90
10459;DHT22;5277;48.722;8.736;2022-10-16T12:27:01;21.70;99.90
10459;DHT22;5277;48.722;8.736;2022-10-16T12:29:39;21.80;99.90
10459;DHT22;5277;48.722;8.736;2022-10-16T12:32:37;21.80;99.90
10459;DHT22;5277;48.722;8.736;2022-10-16T12:35:06;21.80;99.90
10459;DHT22;5277;48.722;8.736;2022-10-16T12:37:34;21.60;99.90
10459;DHT22;5277;48.722;8.736;2022-10-16T12:40:32;21.60;99.90
10459;DHT22;5277;48.722;8.736;2022-10-16T12:42:57;21.60;99.90
10459;DHT22;5277;48.722;8.736;2022-10-16T12:45:32;21.40;99.90
10459;DHT22;5277;48.722;8.736;2022-10-16T12:48:04;21.30;99.90
10459;DHT22;5277;48.722;8.736;2022-10-16T12:50:32;21.20;99.90
10459;DHT22;5277;48.722;8.736;2022-10-16T12:52:59;21.20;99.90
10459;DHT22;5277;48.722;8.736;2022-10-16T12:55:26;21.20;99.90
10459;DHT22;5277;48.722;8.736;2022-10-16T13:00:57;21.10;99.90
10459;DHT22;5277;48.722;8.736;2022-10-16T13:06:45;21.10;99.90
10459;DHT22;5277;48.722;8.736;2022-10-16T13:09:48;21.10;99.90
10459;DHT22;5277;48.722;8.736;2022-10-16T13:12:44;21.20;99.90
10459;DHT22;5277;48.722;8.736;2022-10-16T13:15:30;21.10;99.90
10459;DHT22;5277;48.722;8.736;2022-10-16T13:21:31;21.10;99.90
10459;DHT22;5277;48.722;8.736;2022-10-16T13:26:49;21.10;99.90
10459;DHT22;5277;48.722;8.736;2022-10-16T13:29:18;21.10;99.90
10459;DHT22;5277;48.722;8.736;2022-10-16T13:31:44;21.10;99.90
10459;DHT22;5277;48.722;8.736;2022-10-16T13:34:20;21.20;99.90
10459;DHT22;5277;48.722;8.736;2022-10-16T13:36:49;21.10;99.90
10459;DHT22;5277;48.722;8.736;2022-10-16T13:39:26;21.00;99.90
10459;DHT22;5277;48.722;8.736;2022-10-16T13:42:15;21.00;99.90
10459;DHT22;5277;48.722;8.736;2022-10-16T13:44:46;21.00;99.90
10459;DHT22;5277;48.722;8.736;2022-10-16T13:47:18;21.00;99.90
10459;DHT22;5277;48.722;8.736;2022-10-16T13:49:44;20.90;99.90
10459;DHT22;5277;48.722;8.736;2022-10-16T13:52:18;20.90;99.90
10459;DHT22;5277;48.722;8.736;2022-10-16T13:54:44;20.90;99.90
10459;DHT22;5277;48.722;8.736;2022-10-16T13:57:15;20.80;99.90
10459;DHT22;5277;48.722;8.736;2022-10-16T13:59:41;20.80;99.90
10459;DHT22;5277;48.722;8.736;2022-10-16T14:02:27;20.80;99.90
10459;DHT22;5277;48.722;8.736;2022-10-16T14:04:55;20.70;99.90
10459;DHT22;5277;48.722;8.736;2022-10-16T14:07:26;20.80;99.90
10459;DHT22;5277;48.722;8.736;2022-10-16T14:09:53;20.80;99.90
10459;DHT22;5277;48.722;8.736;2022-10-16T14:12:20;20.80;99.90
10459;DHT22;5277;48.722;8.736;2022-10-16T14:14:49;20.80;99.90
10459;DHT22;5277;48.722;8.736;2022-10-16T14:17:19;20.70;99.90
10459;DHT22;5277;48.722;8.736;2022-10-16T14:19:50;20.70;99.90
10459;DHT22;5277;48.722;8.736;2022-10-16T14:22:26;20.70;99.90
10459;DHT22;5277;48.722;8.736;2022-10-16T14:24:52;20.80;99.90
10459;DHT22;5277;48.722;8.736;2022-10-16T14:30:59;20.70;99.90
10459;DHT22;5277;48.722;8.736;2022-10-16T14:33:32;20.80;99.90
10459;DHT22;5277;48.722;8.736;2022-10-16T14:36:12;20.70;99.90
10459;DHT22;5277;48.722;8.736;2022-10-16T14:38:41;20.70;99.90
10459;DHT22;5277;48.722;8.736;2022-10-16T14:41:07;20.70;99.90
10459;DHT22;5277;48.722;8.736;2022-10-16T14:43:39;20.80;99.90
10459;DHT22;5277;48.722;8.736;2022-10-16T14:46:16;20.80;99.90
10459;DHT22;5277;48.722;8.736;2022-10-16T14:48:45;20.80;99.90
10459;DHT22;5277;48.722;8.736;2022-10-16T14:51:16;20.80;99.90
10459;DHT22;5277;48.722;8.736;2022-10-16T14:54:15;20.80;99.90
10459;DHT22;5277;48.722;8.736;2022-10-16T14:56:43;20.70;99.90
10459;DHT22;5277;48.722;8.736;2022-10-16T14:59:27;20.50;99.90
10459;DHT22;5277;48.722;8.736;2022-10-16T15:01:54;20.40;99.90
10459;DHT22;5277;48.722;8.736;2022-10-16T15:04:32;20.40;99.90
10459;DHT22;5277;48.722;8.736;2022-10-16T15:07:21;20.40;99.90
10459;DHT22;5277;48.722;8.736;2022-10-16T15:09:49;20.40;99.90
10459;DHT22;5277;48.722;8.736;2022-10-16T15:12:24;20.30;99.90
10459;DHT22;5277;48.722;8.736;2022-10-16T15:14:59;20.20;99.90
10459;DHT22;5277;48.722;8.736;2022-10-16T15:17:24;20.10;99.90
10459;DHT22;5277;48.722;8.736;2022-10-16T15:19:50;20.00;99.90
10459;DHT22;5277;48.722;8.736;2022-10-16T15:22:16;20.00;99.90
10459;DHT22;5277;48.722;8.736;2022-10-16T15:24:42;20.00;99.90
10459;DHT22;5277;48.722;8.736;2022-10-16T15:27:08;20.00;99.90
10459;DHT22;5277;48.722;8.736;2022-10-16T15:29:34;20.00;99.90
10459;DHT22;5277;48.722;8.736;2022-10-16T15:32:00;19.90;99.90
10459;DHT22;5277;48.722;8.736;2022-10-16T15:34:25;19.80;99.90
10459;DHT22;5277;48.722;8.736;2022-10-16T15:36:51;19.70;99.90
10459;DHT22;5277;48.722;8.736;2022-10-16T15:39:18;19.60;99.90
10459;DHT22;5277;48.722;8.736;2022-10-16T15:41:45;19.60;99.90
10459;DHT22;5277;48.722;8.736;2022-10-16T15:44:19;19.60;99.90
10459;DHT22;5277;48.722;8.736;2022-10-16T15:46:46;19.40;99.90
10459;DHT22;5277;48.722;8.736;2022-10-16T15:49:15;19.30;99.90
10459;DHT22;5277;48.722;8.736;2022-10-16T15:51:41;19.30;99.90
10459;DHT22;5277;48.722;8.736;2022-10-16T15:54:08;19.30;99.90
10459;DHT22;5277;48.722;8.736;2022-10-16T15:56:34;19.30;99.90
10459;DHT22;5277;48.722;8.736;2022-10-16T15:59:02;19.30;99.90
10459;DHT22;5277;48.722;8.736;2022-10-16T16:01:31;19.20;99.90
10459;DHT22;5277;48.722;8.736;2022-10-16T16:03:57;19.20;99.90
10459;DHT22;5277;48.722;8.736;2022-10-16T16:06:23;19.20;99.90
10459;DHT22;5277;48.722;8.736;2022-10-16T16:09:09;19.10;99.90
10459;DHT22;5277;48.722;8.736;2022-10-16T16:11:35;19.10;99.90
10459;DHT22;5277;48.722;8.736;2022-10-16T16:14:04;19.10;99.90
10459;DHT22;5277;48.722;8.736;2022-10-16T16:16:30;19.00;99.90
10459;DHT22;5277;48.722;8.736;2022-10-16T16:18:57;18.90;99.90
10459;DHT22;5277;48.722;8.736;2022-10-16T16:21:22;18.90;99.90
10459;DHT22;5277;48.722;8.736;2022-10-16T16:23:48;18.90;99.90
10459;DHT22;5277;48.722;8.736;2022-10-16T16:26:34;18.80;99.90
10459;DHT22;5277;48.722;8.736;2022-10-16T16:29:03;18.80;99.90
10459;DHT22;5277;48.722;8.736;2022-10-16T16:31:31;18.80;99.90
10459;DHT22;5277;48.722;8.736;2022-10-16T16:33:57;18.70;99.90
10459;DHT22;5277;48.722;8.736;2022-10-16T16:36:24;18.70;99.90
10459;DHT22;5277;48.722;8.736;2022-10-16T16:38:51;18.60;99.90
10459;DHT22;5277;48.722;8.736;2022-10-16T16:41:19;18.60;99.90
10459;DHT22;5277;48.722;8.736;2022-10-16T16:44:05;18.60;99.90
10459;DHT22;5277;48.722;8.736;2022-10-16T16:46:32;18.50;99.90
10459;DHT22;5277;48.722;8.736;2022-10-16T16:48:59;18.50;99.90
10459;DHT22;5277;48.722;8.736;2022-10-16T16:51:24;18.40;99.90
10459;DHT22;5277;48.722;8.736;2022-10-16T16:53:52;18.40;99.90
10459;DHT22;5277;48.722;8.736;2022-10-16T16:56:19;18.30;99.90
10459;DHT22;5277;48.722;8.736;2022-10-16T16:58:46;18.20;99.90
10459;DHT22;5277;48.722;8.736;2022-10-16T17:01:12;18.10;99.90
10459;DHT22;5277;48.722;8.736;2022-10-16T17:03:37;18.10;99.90
10459;DHT22;5277;48.722;8.736;2022-10-16T17:06:07;17.90;99.90
10459;DHT22;5277;48.722;8.736;2022-10-16T17:08:34;17.90;99.90
10459;DHT22;5277;48.722;8.736;2022-10-16T17:11:00;17.90;99.90
10459;DHT22;5277;48.722;8.736;2022-10-16T17:13:28;17.90;99.90
10459;DHT22;5277;48.722;8.736;2022-10-16T17:15:55;17.90;99.90
10459;DHT22;5277;48.722;8.736;2022-10-16T17:18:22;17.80;99.90
10459;DHT22;5277;48.722;8.736;2022-10-16T17:20:49;17.80;99.90
10459;DHT22;5277;48.722;8.736;2022-10-16T17:23:16;17.70;99.90
10459;DHT22;5277;48.722;8.736;2022-10-16T17:25:42;17.70;99.90
10459;DHT22;5277;48.722;8.736;2022-10-16T17:28:09;17.70;99.90
10459;DHT22;5277;48.722;8.736;2022-10-16T17:30:41;17.60;99.90
10459;DHT22;5277;48.722;8.736;2022-10-16T17:33:07;17.60;99.90
10459;DHT22;5277;48.722;8.736;2022-10-16T17:35:41;17.50;99.90
10459;DHT22;5277;48.722;8.736;2022-10-16T17:38:08;17.50;99.90
10459;DHT22;5277;48.722;8.736;2022-10-16T17:40:34;17.40;99.90
10459;DHT22;5277;48.722;8.736;2022-10-16T17:43:00;17.40;99.90